createdAt,value
2017-08-04T00:00:29.628Z,20.50
2017-08-04T00:02:57.186Z,20.50
2017-08-04T00:05:24.692Z,20.60
2017-08-04T00:07:52.196Z,20.60
2017-08-04T00:10:19.815Z,20.70
2017-08-04T00:12:47.323Z,20.70
2017-08-04T00:15:18.739Z,20.70
2017-08-04T00:17:46.252Z,20.70
2017-08-04T00:20:13.796Z,20.70
2017-08-04T00:22:41.328Z,20.70
2017-08-04T00:25:08.832Z,20.80
2017-08-04T00:27:40.744Z,20.80
2017-08-04T00:30:15.386Z,20.80
2017-08-04T00:32:42.943Z,20.80
2017-08-04T00:35:10.460Z,20.90
2017-08-04T00:37:37.960Z,20.90
2017-08-04T00:40:05.504Z,21.00
2017-08-04T00:42:37.043Z,21.10
2017-08-04T00:45:07.575Z,21.10
2017-08-04T00:47:35.082Z,21.00
2017-08-04T00:50:02.588Z,21.00
2017-08-04T00:52:30.132Z,20.90
2017-08-04T00:54:57.636Z,20.90
2017-08-04T00:57:25.182Z,20.80
2017-08-04T00:59:52.686Z,20.80
2017-08-04T01:02:20.236Z,20.80
2017-08-04T01:04:47.731Z,20.70
2017-08-04T01:07:15.555Z,20.80
2017-08-04T01:09:43.097Z,20.80
2017-08-04T01:12:10.600Z,20.90
2017-08-04T01:14:39.262Z,20.90
2017-08-04T01:17:06.846Z,20.90
2017-08-04T01:19:34.369Z,21.00
2017-08-04T01:22:01.901Z,21.00
2017-08-04T01:24:29.944Z,20.90
2017-08-04T01:26:57.494Z,20.90
2017-08-04T01:29:25.752Z,21.00
2017-08-04T01:31:53.252Z,21.00
2017-08-04T01:34:20.784Z,21.00
2017-08-04T01:36:49.099Z,20.90
2017-08-04T01:39:16.604Z,20.90
2017-08-04T01:41:44.139Z,20.80
2017-08-04T01:44:11.649Z,20.80
2017-08-04T01:46:42.609Z,20.70
2017-08-04T01:49:10.132Z,20.70
2017-08-04T01:51:37.643Z,20.80
2017-08-04T01:54:05.300Z,20.80
2017-08-04T01:56:32.791Z,20.90
2017-08-04T01:59:00.288Z,20.90
2017-08-04T02:01:27.835Z,21.00
2017-08-04T02:03:55.338Z,21.00
2017-08-04T02:06:22.879Z,21.00
2017-08-04T02:08:50.558Z,21.00
2017-08-04T02:11:18.085Z,20.90
2017-08-04T02:13:45.888Z,20.90
2017-08-04T02:16:13.418Z,20.90
2017-08-04T02:18:41.501Z,20.90
2017-08-04T02:21:09.451Z,20.90
2017-08-04T02:23:36.956Z,20.90
2017-08-04T02:26:04.451Z,20.90
2017-08-04T02:28:32.866Z,21.10
2017-08-04T02:31:00.823Z,21.10
2017-08-04T02:33:28.599Z,21.10
2017-08-04T02:36:00.356Z,21.20
2017-08-04T02:38:27.860Z,21.20
2017-08-04T02:41:00.801Z,21.20
2017-08-04T02:43:28.510Z,21.20
2017-08-04T02:45:59.078Z,21.10
2017-08-04T02:48:26.615Z,21.10
2017-08-04T02:50:54.883Z,21.10
2017-08-04T02:53:22.700Z,21.10
2017-08-04T02:55:50.211Z,21.20
2017-08-04T02:58:18.479Z,21.20
2017-08-04T03:00:46.028Z,21.20
2017-08-04T03:03:14.324Z,21.10
2017-08-04T03:05:41.832Z,21.10
2017-08-04T03:08:09.570Z,21.10
2017-08-04T03:10:37.095Z,21.00
2017-08-04T03:13:05.360Z,21.10
2017-08-04T03:15:36.246Z,21.10
2017-08-04T03:18:07.812Z,21.10
2017-08-04T03:20:42.371Z,21.10
2017-08-04T03:23:09.908Z,21.20
2017-08-04T03:25:37.404Z,21.20
2017-08-04T03:28:04.904Z,21.20
2017-08-04T03:30:36.051Z,21.20
2017-08-04T03:33:03.560Z,21.20
2017-08-04T03:35:31.875Z,21.10
2017-08-04T03:37:59.376Z,21.10
2017-08-04T03:40:26.871Z,21.10
2017-08-04T03:42:54.583Z,21.10
2017-08-04T03:45:22.435Z,21.10
2017-08-04T03:47:49.960Z,21.10
2017-08-04T03:50:17.654Z,21.10
2017-08-04T03:52:49.603Z,21.10
2017-08-04T03:55:17.159Z,21.20
2017-08-04T03:57:44.704Z,21.20
2017-08-04T04:00:12.211Z,21.20
2017-08-04T04:02:43.528Z,21.20
2017-08-04T04:05:11.039Z,21.20
2017-08-04T04:07:38.915Z,21.20
2017-08-04T04:10:06.468Z,21.20
2017-08-04T04:12:34.751Z,21.20
2017-08-04T04:15:02.305Z,21.20
2017-08-04T04:17:29.808Z,21.20
2017-08-04T04:19:57.312Z,21.10
2017-08-04T04:22:28.118Z,21.10
2017-08-04T04:24:55.740Z,21.20
2017-08-04T04:27:23.259Z,21.10
2017-08-04T04:29:50.791Z,21.20
2017-08-04T04:32:18.313Z,21.20
2017-08-04T04:34:52.959Z,21.20
2017-08-04T04:37:20.460Z,21.20
2017-08-04T04:39:47.960Z,21.30
2017-08-04T04:42:19.067Z,21.30
2017-08-04T04:44:46.580Z,21.30
2017-08-04T04:47:18.552Z,21.30
2017-08-04T04:49:46.043Z,21.30
2017-08-04T04:52:13.543Z,21.30
2017-08-04T04:54:41.251Z,21.40
2017-08-04T04:57:08.800Z,21.40
2017-08-04T04:59:36.317Z,21.40
2017-08-04T05:02:04.157Z,21.30
2017-08-04T05:04:35.360Z,21.30
2017-08-04T05:07:02.859Z,21.40
2017-08-04T05:09:30.386Z,21.40
2017-08-04T05:11:57.938Z,21.50
2017-08-04T05:14:25.471Z,21.60
2017-08-04T05:16:53.081Z,21.60
2017-08-04T05:19:20.592Z,21.70
2017-08-04T05:21:49.045Z,21.80
2017-08-04T05:24:20.624Z,21.80
2017-08-04T05:26:48.413Z,22.10
2017-08-04T05:29:17.023Z,22.20
2017-08-04T05:31:44.782Z,22.40
2017-08-04T05:34:12.295Z,22.60
2017-08-04T05:36:47.035Z,22.80
2017-08-04T05:39:14.799Z,23.00
2017-08-04T05:41:46.338Z,23.20
2017-08-04T05:44:13.866Z,23.50
2017-08-04T05:46:41.478Z,23.90
2017-08-04T05:49:08.986Z,24.20
2017-08-04T05:51:36.486Z,24.50
2017-08-04T05:54:04.028Z,24.70
2017-08-04T05:56:31.553Z,24.80
2017-08-04T05:58:59.371Z,24.80
2017-08-04T06:01:26.909Z,24.70
2017-08-04T06:03:55.188Z,24.70
2017-08-04T06:06:22.742Z,24.70
2017-08-04T06:08:51.227Z,24.80
2017-08-04T06:11:18.730Z,24.80
2017-08-04T06:13:46.270Z,24.90
2017-08-04T06:16:13.977Z,25.10
2017-08-04T06:18:41.522Z,25.10
2017-08-04T06:21:13.561Z,25.20
2017-08-04T06:23:44.717Z,25.30
2017-08-04T06:26:16.444Z,25.40
2017-08-04T06:28:43.944Z,25.50
2017-08-04T06:31:11.473Z,25.50
2017-08-04T06:33:39.018Z,25.40
2017-08-04T06:36:06.569Z,25.50
2017-08-04T06:38:34.072Z,25.60
2017-08-04T06:41:01.815Z,25.60
2017-08-04T06:43:29.354Z,25.80
2017-08-04T06:45:57.024Z,25.70
2017-08-04T06:48:36.135Z,25.80
2017-08-04T06:51:18.971Z,25.80
2017-08-04T06:53:58.172Z,25.90
2017-08-04T06:56:26.511Z,26.00
2017-08-04T06:58:54.127Z,25.90
2017-08-04T07:01:21.633Z,26.00
2017-08-04T07:03:52.875Z,26.00
2017-08-04T07:06:20.387Z,26.20
2017-08-04T07:08:48.697Z,26.80
2017-08-04T07:11:16.225Z,26.80
2017-08-04T07:13:43.764Z,27.10
2017-08-04T07:16:11.273Z,27.20
2017-08-04T07:18:38.893Z,27.30
2017-08-04T07:21:06.496Z,27.30
2017-08-04T07:23:34.906Z,27.50
2017-08-04T07:26:10.096Z,27.60
2017-08-04T07:28:37.652Z,27.50
2017-08-04T07:31:05.319Z,27.30
2017-08-04T07:33:32.823Z,27.20
2017-08-04T07:36:04.075Z,27.00
2017-08-04T07:38:34.662Z,27.00
2017-08-04T07:41:02.463Z,27.00
2017-08-04T07:43:33.049Z,27.10
2017-08-04T07:46:00.565Z,27.20
2017-08-04T07:48:28.075Z,27.20
2017-08-04T07:51:00.362Z,27.00
2017-08-04T07:53:27.860Z,26.80
2017-08-04T07:56:00.481Z,26.60
2017-08-04T07:58:31.087Z,26.60
2017-08-04T08:00:58.642Z,26.60
2017-08-04T08:03:26.204Z,26.60
2017-08-04T08:05:53.757Z,26.70
2017-08-04T08:08:22.021Z,27.10
2017-08-04T08:10:53.224Z,27.00
2017-08-04T08:13:20.775Z,27.40
2017-08-04T08:15:48.319Z,27.50
2017-08-04T08:18:15.860Z,27.50
2017-08-04T08:20:43.360Z,27.80
2017-08-04T08:23:15.401Z,28.00
2017-08-04T08:25:43.167Z,28.10
2017-08-04T08:28:10.687Z,28.00
2017-08-04T08:30:48.832Z,28.00
2017-08-04T08:33:16.604Z,27.90
2017-08-04T08:35:44.383Z,27.50
2017-08-04T08:38:11.903Z,27.40
2017-08-04T08:40:42.974Z,27.40
2017-08-04T08:43:10.510Z,27.50
2017-08-04T08:45:38.041Z,27.20
2017-08-04T08:48:05.640Z,27.20
2017-08-04T08:50:33.183Z,27.20
2017-08-04T08:53:00.945Z,27.10
2017-08-04T08:55:29.528Z,26.70
2017-08-04T08:57:57.311Z,26.70
2017-08-04T09:00:24.891Z,26.70
2017-08-04T09:02:52.388Z,26.80
2017-08-04T09:05:19.932Z,26.70
2017-08-04T09:07:47.431Z,26.60
2017-08-04T09:10:14.928Z,26.70
2017-08-04T09:12:42.473Z,26.90
2017-08-04T09:15:10.120Z,26.80
2017-08-04T09:17:37.883Z,26.80
2017-08-04T09:20:05.424Z,26.60
2017-08-04T09:22:33.714Z,26.30
2017-08-04T09:25:09.472Z,26.30
2017-08-04T09:27:37.012Z,26.30
2017-08-04T09:30:04.520Z,26.30
2017-08-04T09:32:32.100Z,26.20
2017-08-04T09:34:59.615Z,26.30
2017-08-04T09:37:27.376Z,26.60
2017-08-04T09:39:54.922Z,26.80
2017-08-04T09:42:22.553Z,26.90
2017-08-04T09:44:50.051Z,26.80
2017-08-04T09:47:17.559Z,26.70
2017-08-04T09:49:45.092Z,26.60
2017-08-04T09:52:12.671Z,26.60
2017-08-04T09:54:43.890Z,26.60
2017-08-04T09:57:11.387Z,26.60
2017-08-04T09:59:38.914Z,26.80
2017-08-04T10:02:06.408Z,26.90
2017-08-04T10:04:34.293Z,27.10
2017-08-04T10:07:05.104Z,27.50
2017-08-04T10:09:36.871Z,27.90
2017-08-04T10:12:04.421Z,28.00
2017-08-04T10:14:31.959Z,28.10
2017-08-04T10:16:59.465Z,28.50
2017-08-04T10:19:27.000Z,28.90
2017-08-04T10:21:54.560Z,29.00
2017-08-04T10:24:22.075Z,29.00
2017-08-04T10:26:54.033Z,28.60
2017-08-04T10:29:21.540Z,28.80
2017-08-04T10:31:49.065Z,29.00
2017-08-04T10:34:16.973Z,29.30
2017-08-04T10:36:44.505Z,29.30
2017-08-04T10:39:15.915Z,29.10
2017-08-04T10:41:43.489Z,29.00
2017-08-04T10:44:15.208Z,29.10
2017-08-04T10:46:43.539Z,29.40
2017-08-04T10:49:11.080Z,29.40
2017-08-04T10:51:38.760Z,29.50
2017-08-04T10:54:06.536Z,29.50
2017-08-04T10:56:34.120Z,29.40
2017-08-04T10:59:01.715Z,29.10
2017-08-04T11:01:29.215Z,28.60
2017-08-04T11:03:56.744Z,28.20
2017-08-04T11:06:24.305Z,28.60
2017-08-04T11:08:56.500Z,28.80
2017-08-04T11:11:24.075Z,29.00
2017-08-04T11:13:51.569Z,29.20
2017-08-04T11:16:19.064Z,28.60
2017-08-04T11:18:46.626Z,28.20
2017-08-04T11:21:14.167Z,28.10
2017-08-04T11:23:41.668Z,27.90
2017-08-04T11:26:13.059Z,27.80
2017-08-04T11:28:40.736Z,28.10
2017-08-04T11:31:15.863Z,28.00
2017-08-04T11:33:43.433Z,27.80
2017-08-04T11:36:11.094Z,27.60
2017-08-04T11:38:38.601Z,27.70
2017-08-04T11:41:06.677Z,27.80
2017-08-04T11:43:37.755Z,27.70
2017-08-04T11:46:05.256Z,28.00
2017-08-04T11:48:32.870Z,28.00
2017-08-04T11:51:00.376Z,27.70
2017-08-04T11:53:27.919Z,27.70
2017-08-04T11:56:02.823Z,28.00
2017-08-04T11:58:34.832Z,28.10
2017-08-04T12:01:02.333Z,27.90
2017-08-04T12:03:29.826Z,27.90
2017-08-04T12:05:57.386Z,27.60
2017-08-04T12:08:24.895Z,27.40
2017-08-04T12:10:52.693Z,27.80
2017-08-04T12:13:20.204Z,28.40
2017-08-04T12:15:47.723Z,28.60
2017-08-04T12:18:15.310Z,28.30
2017-08-04T12:20:42.804Z,28.30
2017-08-04T12:23:10.463Z,28.20
2017-08-04T12:25:45.430Z,28.30
2017-08-04T12:28:12.952Z,28.40
2017-08-04T12:30:45.253Z,28.60
2017-08-04T12:33:13.019Z,28.60
2017-08-04T12:35:40.799Z,28.70
2017-08-04T12:38:08.454Z,28.70
2017-08-04T12:40:35.950Z,28.90
2017-08-04T12:43:06.520Z,28.20
2017-08-04T12:45:34.032Z,28.20
2017-08-04T12:48:01.636Z,27.90
2017-08-04T12:50:29.139Z,27.50
2017-08-04T12:52:56.647Z,27.20
2017-08-04T12:55:33.693Z,27.10
2017-08-04T12:58:01.192Z,26.90
2017-08-04T13:00:28.864Z,27.00
2017-08-04T13:02:56.429Z,27.00
2017-08-04T13:05:23.951Z,26.70
2017-08-04T13:07:52.480Z,26.90
2017-08-04T13:10:19.999Z,26.70
2017-08-04T13:12:47.506Z,26.50
2017-08-04T13:15:18.234Z,26.30
2017-08-04T13:17:45.981Z,26.10
2017-08-04T13:20:13.790Z,26.20
2017-08-04T13:22:41.292Z,26.20
2017-08-04T13:25:12.278Z,26.00
2017-08-04T13:27:39.773Z,26.00
2017-08-04T13:30:07.279Z,25.90
2017-08-04T13:32:34.824Z,25.90
2017-08-04T13:35:02.385Z,26.00
2017-08-04T13:37:29.923Z,25.80
2017-08-04T13:39:57.605Z,26.00
2017-08-04T13:42:25.194Z,25.90
2017-08-04T13:44:52.697Z,25.80
2017-08-04T13:47:20.195Z,25.70
2017-08-04T13:49:47.828Z,25.50
2017-08-04T13:52:15.337Z,25.50
2017-08-04T13:54:42.869Z,25.50
2017-08-04T13:57:13.981Z,25.70
2017-08-04T13:59:41.527Z,25.70
2017-08-04T14:02:09.108Z,25.70
2017-08-04T14:04:36.612Z,25.90
2017-08-04T14:07:04.339Z,26.20
2017-08-04T14:09:32.000Z,26.50
2017-08-04T14:11:59.507Z,26.60
2017-08-04T14:14:27.066Z,26.00
2017-08-04T14:16:54.563Z,25.70
2017-08-04T14:19:22.088Z,25.70
2017-08-04T14:21:49.692Z,25.80
2017-08-04T14:24:17.209Z,25.70
2017-08-04T14:26:52.504Z,25.60
2017-08-04T14:29:20.007Z,25.60
2017-08-04T14:31:47.540Z,25.40
2017-08-04T14:34:15.039Z,25.10
2017-08-04T14:36:43.024Z,25.10
2017-08-04T14:39:11.511Z,25.30
2017-08-04T14:41:49.316Z,25.20
2017-08-04T14:44:24.654Z,25.60
2017-08-04T14:46:52.516Z,25.80
2017-08-04T14:49:20.595Z,25.90
2017-08-04T14:51:48.092Z,26.00
2017-08-04T14:54:15.808Z,25.80
2017-08-04T14:56:43.339Z,26.00
2017-08-04T14:59:16.116Z,26.60
2017-08-04T15:01:43.643Z,26.70
2017-08-04T15:04:11.152Z,26.90
2017-08-04T15:06:38.722Z,27.00
2017-08-04T15:09:06.470Z,26.80
2017-08-04T15:11:33.979Z,27.10
2017-08-04T15:14:01.503Z,27.50
2017-08-04T15:16:32.424Z,27.90
2017-08-04T15:18:59.927Z,27.90
2017-08-04T15:21:27.424Z,27.40
2017-08-04T15:23:59.424Z,27.10
2017-08-04T15:26:27.189Z,27.10
2017-08-04T15:28:54.691Z,27.10
2017-08-04T15:31:25.480Z,27.10
2017-08-04T15:34:03.390Z,26.90
2017-08-04T15:36:30.896Z,26.80
2017-08-04T15:38:59.538Z,27.00
2017-08-04T15:41:27.040Z,27.00
2017-08-04T15:43:54.556Z,27.20
2017-08-04T15:46:25.285Z,27.20
2017-08-04T15:48:52.803Z,27.10
2017-08-04T15:51:21.278Z,26.90
2017-08-04T15:53:48.787Z,26.90
2017-08-04T15:56:16.655Z,27.00
2017-08-04T15:58:47.179Z,27.10
2017-08-04T16:01:14.722Z,27.00
2017-08-04T16:03:42.403Z,27.00
2017-08-04T16:06:09.912Z,27.00
2017-08-04T16:08:38.180Z,26.80
2017-08-04T16:11:05.728Z,26.80
2017-08-04T16:13:33.227Z,27.00
2017-08-04T16:16:04.380Z,26.70
2017-08-04T16:18:31.888Z,26.70
2017-08-04T16:20:59.386Z,26.60
2017-08-04T16:23:26.923Z,26.50
2017-08-04T16:25:54.531Z,26.30
2017-08-04T16:28:25.559Z,26.00
2017-08-04T16:30:56.820Z,26.00
2017-08-04T16:33:24.420Z,26.10
2017-08-04T16:35:51.920Z,26.30
2017-08-04T16:38:19.444Z,26.40
2017-08-04T16:40:47.892Z,26.40
2017-08-04T16:43:15.459Z,26.30
2017-08-04T16:45:42.963Z,26.10
2017-08-04T16:48:10.753Z,26.00
2017-08-04T16:50:38.254Z,26.10
2017-08-04T16:53:05.835Z,26.30
2017-08-04T16:55:33.725Z,26.60
2017-08-04T16:58:01.277Z,27.00
2017-08-04T17:00:28.817Z,27.30
2017-08-04T17:02:56.417Z,27.00
2017-08-04T17:05:24.068Z,27.00
2017-08-04T17:07:51.623Z,27.00
2017-08-04T17:10:19.123Z,26.70
2017-08-04T17:12:46.800Z,26.80
2017-08-04T17:15:14.295Z,27.00
2017-08-04T17:17:44.972Z,26.80
2017-08-04T17:20:12.486Z,26.80
2017-08-04T17:22:40.019Z,26.90
2017-08-04T17:25:07.528Z,26.90
2017-08-04T17:27:35.090Z,26.80
2017-08-04T17:30:02.739Z,27.20
2017-08-04T17:32:30.257Z,27.90
2017-08-04T17:34:58.575Z,27.40
2017-08-04T17:37:26.235Z,27.40
2017-08-04T17:39:53.748Z,27.60
2017-08-04T17:42:21.332Z,27.90
2017-08-04T17:44:52.956Z,27.50
2017-08-04T17:47:20.456Z,27.50
2017-08-04T17:49:47.998Z,27.20
2017-08-04T17:52:16.260Z,27.00
2017-08-04T17:54:43.787Z,27.00
2017-08-04T17:57:11.332Z,26.90
2017-08-04T17:59:39.236Z,27.10
2017-08-04T18:02:06.790Z,27.20
2017-08-04T18:04:34.292Z,27.10
2017-08-04T18:07:02.081Z,26.60
2017-08-04T18:09:30.664Z,26.30
2017-08-04T18:11:58.160Z,25.90
2017-08-04T18:14:26.126Z,25.80
2017-08-04T18:16:57.031Z,25.70
2017-08-04T18:19:24.548Z,25.80
2017-08-04T18:21:52.847Z,26.40
2017-08-04T18:24:20.363Z,26.40
2017-08-04T18:26:47.923Z,26.30
2017-08-04T18:29:15.539Z,25.80
2017-08-04T18:31:54.076Z,25.30
2017-08-04T18:34:25.570Z,25.00
2017-08-04T18:36:53.896Z,24.10
2017-08-04T18:39:21.444Z,24.10
2017-08-04T18:41:48.977Z,23.70
2017-08-04T18:44:16.515Z,23.30
2017-08-04T18:46:44.021Z,23.10
2017-08-04T18:49:11.536Z,22.90
2017-08-04T18:51:39.904Z,22.60
2017-08-04T18:54:07.403Z,22.60
2017-08-04T18:56:34.904Z,22.50
2017-08-04T18:59:02.483Z,22.40
2017-08-04T19:01:37.315Z,22.30
2017-08-04T19:04:09.439Z,22.20
2017-08-04T19:06:36.943Z,22.10
2017-08-04T19:09:05.266Z,22.00
2017-08-04T19:11:33.141Z,22.00
2017-08-04T19:14:00.808Z,21.90
2017-08-04T19:16:32.250Z,21.90
2017-08-04T19:18:59.752Z,21.80
2017-08-04T19:21:27.810Z,21.80
2017-08-04T19:23:55.319Z,21.70
2017-08-04T19:26:22.828Z,21.60
2017-08-04T19:28:50.359Z,21.60
2017-08-04T19:31:17.858Z,21.40
2017-08-04T19:33:49.077Z,21.50
2017-08-04T19:36:16.620Z,21.50
2017-08-04T19:38:47.364Z,21.30
2017-08-04T19:41:22.006Z,21.30
2017-08-04T19:43:49.511Z,21.20
2017-08-04T19:46:17.500Z,21.10
2017-08-04T19:48:45.457Z,21.00
2017-08-04T19:51:13.222Z,21.00
2017-08-04T19:53:40.767Z,20.90
2017-08-04T19:56:08.275Z,21.00
2017-08-04T19:58:35.913Z,21.00
2017-08-04T20:01:03.456Z,20.90
2017-08-04T20:03:31.172Z,20.90
2017-08-04T20:05:58.680Z,20.80
2017-08-04T20:08:29.412Z,20.80
2017-08-04T20:10:57.238Z,20.70
2017-08-04T20:13:24.743Z,20.70
2017-08-04T20:15:52.284Z,20.70
2017-08-04T20:18:19.808Z,20.70
2017-08-04T20:20:47.308Z,20.60
2017-08-04T20:23:18.419Z,20.50
2017-08-04T20:25:45.924Z,20.40
2017-08-04T20:28:13.499Z,20.40
2017-08-04T20:30:41.141Z,20.30
2017-08-04T20:33:08.852Z,20.30
2017-08-04T20:35:40.155Z,20.20
2017-08-04T20:38:07.756Z,20.10
2017-08-04T20:40:35.293Z,20.10
2017-08-04T20:43:02.992Z,20.00
2017-08-04T20:45:30.792Z,19.90
2017-08-04T20:48:02.250Z,19.90
2017-08-04T20:50:29.794Z,19.90
2017-08-04T20:52:57.284Z,19.80
2017-08-04T20:55:24.917Z,19.80
2017-08-04T20:57:52.596Z,19.70
2017-08-04T21:00:20.209Z,19.70
2017-08-04T21:02:51.909Z,19.50
2017-08-04T21:05:19.412Z,19.50
2017-08-04T21:07:58.523Z,19.40
2017-08-04T21:10:26.025Z,19.40
2017-08-04T21:12:54.347Z,19.60
2017-08-04T21:15:21.889Z,19.70
2017-08-04T21:17:49.555Z,19.70
2017-08-04T21:20:28.362Z,19.60
2017-08-04T21:23:00.752Z,19.60
2017-08-04T21:25:28.248Z,19.50
2017-08-04T21:27:55.800Z,19.40
2017-08-04T21:30:23.312Z,19.20
2017-08-04T21:32:50.992Z,19.20
2017-08-04T21:35:18.547Z,19.10
2017-08-04T21:37:46.048Z,19.10
2017-08-04T21:40:13.603Z,19.10
2017-08-04T21:42:41.120Z,19.00
2017-08-04T21:45:08.655Z,19.00
2017-08-04T21:47:36.617Z,18.90
2017-08-04T21:50:04.890Z,18.90
2017-08-04T21:52:35.755Z,18.90
2017-08-04T21:55:03.263Z,18.90
2017-08-04T21:57:34.362Z,19.00
2017-08-04T22:00:01.877Z,19.00
2017-08-04T22:02:30.187Z,18.90
2017-08-04T22:05:02.560Z,18.90
2017-08-04T22:07:30.120Z,18.90
2017-08-04T22:09:57.678Z,18.90
2017-08-04T22:12:25.251Z,18.90
2017-08-04T22:14:52.810Z,18.90
2017-08-04T22:17:20.460Z,19.00
2017-08-04T22:19:52.221Z,19.20
2017-08-04T22:22:19.990Z,19.30
2017-08-04T22:24:47.495Z,19.30
2017-08-04T22:27:15.776Z,19.40
2017-08-04T22:29:43.575Z,19.40
2017-08-04T22:32:11.080Z,19.40
2017-08-04T22:34:43.413Z,19.40
2017-08-04T22:37:19.480Z,19.40
2017-08-04T22:39:46.995Z,19.30
2017-08-04T22:42:15.301Z,19.30
2017-08-04T22:44:42.991Z,19.30
2017-08-04T22:47:10.551Z,19.30
2017-08-04T22:49:41.173Z,19.20
2017-08-04T22:52:08.675Z,19.10
2017-08-04T22:54:36.192Z,19.00
2017-08-04T22:57:08.341Z,18.90
2017-08-04T22:59:35.857Z,18.90
2017-08-04T23:02:04.187Z,18.90
2017-08-04T23:04:31.691Z,18.80
2017-08-04T23:06:59.208Z,18.80
2017-08-04T23:09:26.766Z,18.80
2017-08-04T23:11:54.272Z,18.90
2017-08-04T23:14:21.795Z,18.90
2017-08-04T23:16:49.327Z,18.90
2017-08-04T23:19:16.944Z,19.00
2017-08-04T23:21:45.049Z,19.10
2017-08-04T23:24:12.760Z,19.10
2017-08-04T23:26:40.316Z,19.20
2017-08-04T23:29:07.968Z,19.20
2017-08-04T23:31:35.490Z,19.30
2017-08-04T23:34:03.076Z,19.30
2017-08-04T23:36:30.713Z,19.40
2017-08-04T23:39:01.854Z,19.50
2017-08-04T23:41:29.419Z,19.40
2017-08-04T23:43:56.972Z,19.60
2017-08-04T23:46:24.491Z,19.60
2017-08-04T23:48:52.071Z,19.60
2017-08-04T23:51:20.340Z,19.70
2017-08-04T23:53:48.144Z,19.70
2017-08-04T23:56:15.713Z,19.80
2017-08-04T23:58:43.219Z,19.90
